createdAt,value
2016-04-23T00:00:41.951Z,14.03
2016-04-23T00:01:41.922Z,14.03
2016-04-23T00:02:41.925Z,13.95
2016-04-23T00:03:41.943Z,13.96
2016-04-23T00:04:41.915Z,13.97
2016-04-23T00:05:41.965Z,13.99
2016-04-23T00:06:41.952Z,13.99
2016-04-23T00:07:41.938Z,14
2016-04-23T00:08:41.926Z,14.14
2016-04-23T00:09:41.943Z,14.07
2016-04-23T00:10:41.947Z,14.05
2016-04-23T00:11:41.918Z,14.11
2016-04-23T00:12:41.937Z,14.18
2016-04-23T00:13:41.939Z,14.12
2016-04-23T00:14:41.942Z,14.07
2016-04-23T00:15:41.945Z,14.14
2016-04-23T00:16:41.962Z,14.08
2016-04-23T00:17:41.965Z,14.14
2016-04-23T00:18:41.953Z,14.12
2016-04-23T00:19:41.940Z,14.07
2016-04-23T00:20:42.020Z,14.18
2016-04-23T00:21:41.976Z,14.03
2016-04-23T00:22:41.964Z,14.03
2016-04-23T00:23:41.981Z,14.17
2016-04-23T00:24:41.969Z,14.08
2016-04-23T00:25:41.956Z,14.1
2016-04-23T00:26:41.974Z,14.08
2016-04-23T00:27:41.961Z,14.05
2016-04-23T00:28:41.980Z,14.04
2016-04-23T00:29:41.966Z,14.08
2016-04-23T00:30:42.032Z,13.99
2016-04-23T00:31:41.988Z,14
2016-04-23T00:32:41.975Z,13.92
2016-04-23T00:33:41.977Z,13.96
2016-04-23T00:34:41.980Z,13.96
2016-04-23T00:35:42.030Z,13.93
2016-04-23T00:36:41.985Z,13.92
2016-04-23T00:37:42.004Z,13.93
2016-04-23T00:38:41.991Z,13.9
2016-04-23T00:39:41.993Z,13.87
2016-04-23T00:40:42.027Z,13.9
2016-04-23T00:41:41.983Z,13.9
2016-04-23T00:42:41.985Z,13.79
2016-04-23T00:43:41.988Z,13.79
2016-04-23T00:44:41.991Z,13.9
2016-04-23T00:45:41.994Z,13.95
2016-04-23T00:46:41.981Z,13.79
2016-04-23T00:47:42.015Z,13.89
2016-04-23T00:48:42.002Z,13.77
2016-04-23T00:49:41.989Z,13.92
2016-04-23T00:50:41.992Z,13.89
2016-04-23T00:51:42.009Z,13.81
2016-04-23T00:52:41.998Z,13.77
2016-04-23T00:53:42.015Z,13.93
2016-04-23T00:54:42.003Z,13.87
2016-04-23T00:55:42.020Z,13.92
2016-04-23T00:56:41.992Z,13.81
2016-04-23T00:57:42.026Z,13.92
2016-04-23T00:58:42.013Z,13.83
2016-04-23T00:59:42.016Z,13.95
2016-04-23T01:00:42.019Z,13.87
2016-04-23T01:01:42.022Z,13.87
2016-04-23T01:02:42.071Z,13.93
2016-04-23T01:03:42.041Z,13.97
2016-04-23T01:04:42.029Z,13.93
2016-04-23T01:05:42.111Z,13.93
2016-04-23T01:06:42.019Z,13.93
2016-04-23T01:07:42.021Z,13.96
2016-04-23T01:08:42.025Z,13.95
2016-04-23T01:09:42.058Z,14
2016-04-23T01:10:42.108Z,13.9
2016-04-23T01:11:42.032Z,13.93
2016-04-23T01:12:42.036Z,13.95
2016-04-23T01:13:42.038Z,13.87
2016-04-23T01:14:42.025Z,13.75
2016-04-23T01:15:42.106Z,13.74
2016-04-23T01:16:42.030Z,13.67
2016-04-23T01:17:42.034Z,13.71
2016-04-23T01:18:42.051Z,13.65
2016-04-23T01:19:42.039Z,13.74
2016-04-23T01:20:42.104Z,13.65
2016-04-23T01:21:42.045Z,13.71
2016-04-23T01:22:42.031Z,13.65
2016-04-23T01:23:42.049Z,13.6
2016-04-23T01:24:42.068Z,13.67
2016-04-23T01:25:42.070Z,13.56
2016-04-23T01:26:42.042Z,13.57
2016-04-23T01:27:42.044Z,13.56
2016-04-23T01:28:42.063Z,13.59
2016-04-23T01:29:42.050Z,13.59
2016-04-23T01:30:42.083Z,13.53
2016-04-23T01:31:42.071Z,13.56
2016-04-23T01:32:41.964Z,13.53
2016-04-23T01:33:42.061Z,13.59
2016-04-23T01:34:42.047Z,13.6
2016-04-23T01:35:42.066Z,13.59
2016-04-23T01:36:42.069Z,13.57
2016-04-23T01:37:42.071Z,13.56
2016-04-23T01:38:42.058Z,13.59
2016-04-23T01:39:42.046Z,13.56
2016-04-23T01:40:42.141Z,13.62
2016-04-23T01:41:42.082Z,13.57
2016-04-23T01:42:42.054Z,13.6
2016-04-23T01:43:42.087Z,13.54
2016-04-23T01:44:42.074Z,13.57
2016-04-23T01:45:42.109Z,13.56
2016-04-23T01:46:42.065Z,13.53
2016-04-23T01:47:42.114Z,13.65
2016-04-23T01:48:42.085Z,13.53
2016-04-23T01:49:42.073Z,13.57
2016-04-23T01:50:42.137Z,13.59
2016-04-23T01:51:42.093Z,13.54
2016-04-23T01:52:42.095Z,13.57
2016-04-23T01:53:42.068Z,13.54
2016-04-23T01:54:42.086Z,13.65
2016-04-23T01:55:42.150Z,13.62
2016-04-23T01:56:42.092Z,13.62
2016-04-23T01:57:42.078Z,13.56
2016-04-23T01:58:42.144Z,13.59
2016-04-23T01:59:42.083Z,13.56
2016-04-23T02:00:42.103Z,13.56
2016-04-23T02:01:42.105Z,13.57
2016-04-23T02:02:42.122Z,13.57
2016-04-23T02:03:42.094Z,13.54
2016-04-23T02:04:42.096Z,13.57
2016-04-23T02:05:42.100Z,13.57
2016-04-23T02:06:42.118Z,13.53
2016-04-23T02:07:42.105Z,13.54
2016-04-23T02:08:42.108Z,13.62
2016-04-23T02:09:42.095Z,13.54
2016-04-23T02:10:42.129Z,13.68
2016-04-23T02:11:42.099Z,13.54
2016-04-23T02:12:42.103Z,13.56
2016-04-23T02:13:42.121Z,13.56
2016-04-23T02:14:42.124Z,13.56
2016-04-23T02:15:42.142Z,13.54
2016-04-23T02:16:42.113Z,13.56
2016-04-23T02:17:42.116Z,13.57
2016-04-23T02:18:42.103Z,13.54
2016-04-23T02:19:42.106Z,13.56
2016-04-23T02:20:42.171Z,13.57
2016-04-23T02:21:42.112Z,13.54
2016-04-23T02:22:42.124Z,13.56
2016-04-23T02:23:42.127Z,13.5
2016-04-23T02:24:42.130Z,13.54
2016-04-23T02:25:42.194Z,13.53
2016-04-23T02:26:42.119Z,13.59
2016-04-23T02:27:42.121Z,13.56
2016-04-23T02:28:42.141Z,13.57
2016-04-23T02:29:42.127Z,13.53
2016-04-23T02:30:42.208Z,13.56
2016-04-23T02:31:42.117Z,13.52
2016-04-23T02:32:42.119Z,13.46
2016-04-23T02:33:42.138Z,13.5
2016-04-23T02:34:42.140Z,13.42
2016-04-23T02:35:42.159Z,13.54
2016-04-23T02:36:42.130Z,13.54
2016-04-23T02:37:42.133Z,13.52
2016-04-23T02:38:42.151Z,13.42
2016-04-23T02:39:42.138Z,13.47
2016-04-23T02:40:42.266Z,13.62
2016-04-23T02:41:42.143Z,13.62
2016-04-23T02:42:42.162Z,13.53
2016-04-23T02:43:42.149Z,13.57
2016-04-23T02:44:42.152Z,13.59
2016-04-23T02:45:42.170Z,13.62
2016-04-23T02:46:42.157Z,13.5
2016-04-23T02:47:42.145Z,13.53
2016-04-23T02:48:42.131Z,13.57
2016-04-23T02:49:42.150Z,13.62
2016-04-23T02:50:42.136Z,13.52
2016-04-23T02:51:42.156Z,13.46
2016-04-23T02:52:42.173Z,13.44
2016-04-23T02:53:42.160Z,13.44
2016-04-23T02:54:42.148Z,13.52
2016-04-23T02:55:42.150Z,13.47
2016-04-23T02:56:42.169Z,13.5
2016-04-23T02:57:42.155Z,13.52
2016-04-23T02:58:42.159Z,13.5
2016-04-23T02:59:42.177Z,13.41
2016-04-23T03:00:42.179Z,13.39
2016-04-23T03:01:42.166Z,13.39
2016-04-23T03:02:42.153Z,13.3
2016-04-23T03:03:42.172Z,13.35
2016-04-23T03:04:42.190Z,13.33
2016-04-23T03:05:42.208Z,13.23
2016-04-23T03:06:42.211Z,13.16
2016-04-23T03:07:42.166Z,13.22
2016-04-23T03:08:42.185Z,13.13
2016-04-23T03:09:42.172Z,13.11
2016-04-23T03:10:42.175Z,13.04
2016-04-23T03:11:42.193Z,13.09
2016-04-23T03:12:42.195Z,13.01
2016-04-23T03:13:42.183Z,13
2016-04-23T03:14:42.170Z,12.94
2016-04-23T03:15:42.187Z,12.9
2016-04-23T03:16:42.176Z,12.94
2016-04-23T03:17:42.178Z,12.8
2016-04-23T03:18:42.181Z,12.9
2016-04-23T03:19:42.184Z,12.86
2016-04-23T03:20:42.249Z,12.86
2016-04-23T03:21:42.189Z,12.82
2016-04-23T03:22:42.207Z,12.9
2016-04-23T03:23:42.194Z,12.82
2016-04-23T03:24:42.181Z,12.83
2016-04-23T03:25:42.199Z,12.93
2016-04-23T03:26:42.186Z,12.93
2016-04-23T03:27:42.190Z,12.87
2016-04-23T03:28:42.208Z,12.85
2016-04-23T03:29:42.195Z,12.83
2016-04-23T03:30:42.182Z,12.97
2016-04-23T03:31:42.200Z,12.93
2016-04-23T03:32:42.219Z,12.94
2016-04-23T03:33:42.190Z,12.94
2016-04-23T03:34:42.208Z,12.95
2016-04-23T03:35:42.227Z,12.95
2016-04-23T03:36:42.214Z,12.94
2016-04-23T03:37:42.201Z,12.97
2016-04-23T03:38:42.204Z,12.94
2016-04-23T03:39:42.191Z,12.94
2016-04-23T03:40:42.240Z,13.01
2016-04-23T03:41:42.195Z,13
2016-04-23T03:42:42.214Z,13
2016-04-23T03:43:42.218Z,13.03
2016-04-23T03:44:42.188Z,13.03
2016-04-23T03:45:42.301Z,13
2016-04-23T03:46:42.209Z,13.01
2016-04-23T03:47:42.212Z,13.01
2016-04-23T03:48:42.199Z,13.05
2016-04-23T03:49:42.201Z,13
2016-04-23T03:50:42.236Z,12.95
2016-04-23T03:51:42.239Z,12.97
2016-04-23T03:52:42.226Z,13.01
2016-04-23T03:53:42.212Z,12.93
2016-04-23T03:54:42.215Z,12.95
2016-04-23T03:55:42.221Z,12.82
2016-04-23T03:56:42.224Z,12.9
2016-04-23T03:57:42.243Z,12.78
2016-04-23T03:58:42.214Z,12.82
2016-04-23T03:59:42.202Z,12.86
2016-04-23T04:00:42.250Z,12.83
2016-04-23T04:01:42.223Z,12.78
2016-04-23T04:02:42.226Z,12.78
2016-04-23T04:03:42.212Z,12.78
2016-04-23T04:04:42.230Z,12.79
2016-04-23T04:05:42.248Z,12.79
2016-04-23T04:06:42.204Z,12.8
2016-04-23T04:07:42.254Z,12.8
2016-04-23T04:08:42.226Z,12.79
2016-04-23T04:09:42.228Z,12.8
2016-04-23T04:10:42.292Z,12.78
2016-04-23T04:11:42.218Z,12.79
2016-04-23T04:12:42.220Z,12.78
2016-04-23T04:13:42.223Z,12.8
2016-04-23T04:14:42.242Z,12.8
2016-04-23T04:15:42.306Z,12.8
2016-04-23T04:16:42.216Z,12.79
2016-04-23T04:17:42.250Z,12.78
2016-04-23T04:18:42.221Z,12.8
2016-04-23T04:19:42.239Z,12.79
2016-04-23T04:20:42.304Z,12.8
2016-04-23T04:21:42.244Z,12.79
2016-04-23T04:22:42.232Z,12.82
2016-04-23T04:23:42.094Z,12.78
2016-04-23T04:24:42.238Z,12.78
2016-04-23T04:25:42.083Z,12.83
2016-04-23T04:26:42.258Z,12.82
2016-04-23T04:27:42.073Z,12.82
2016-04-23T04:28:42.248Z,12.78
2016-04-23T04:29:42.219Z,12.82
2016-04-23T04:30:42.254Z,12.82
2016-04-23T04:31:42.241Z,12.79
2016-04-23T04:32:42.243Z,12.83
2016-04-23T04:33:42.246Z,12.82
2016-04-23T04:34:42.232Z,12.82
2016-04-23T04:35:42.329Z,12.86
2016-04-23T04:36:42.581Z,12.83
2016-04-23T04:37:42.256Z,12.85
2016-04-23T04:38:42.228Z,12.9
2016-04-23T04:39:42.262Z,12.93
2016-04-23T04:40:42.249Z,12.79
2016-04-23T04:41:42.439Z,12.94
2016-04-23T04:42:42.254Z,12.86
2016-04-23T04:43:42.241Z,12.94
2016-04-23T04:44:42.088Z,12.9
2016-04-23T04:45:42.247Z,12.87
2016-04-23T04:46:42.250Z,12.85
2016-04-23T04:47:41.503Z,12.8
2016-04-23T04:48:42.239Z,12.86
2016-04-23T04:49:42.273Z,12.82
2016-04-23T04:50:42.275Z,12.94
2016-04-23T04:51:42.247Z,12.98
2016-04-23T04:52:42.249Z,12.95
2016-04-23T04:53:42.268Z,12.79
2016-04-23T04:54:42.271Z,12.82
2016-04-23T04:55:42.274Z,12.79
2016-04-23T04:56:42.246Z,12.76
2016-04-23T04:57:42.263Z,12.79
2016-04-23T04:58:42.266Z,12.78
2016-04-23T04:59:42.253Z,12.8
2016-04-23T05:00:41.568Z,12.86
2016-04-23T05:01:42.274Z,12.85
2016-04-23T05:02:42.262Z,12.83
2016-04-23T05:03:42.265Z,12.85
2016-04-23T05:04:42.251Z,12.8
2016-04-23T05:05:42.254Z,12.95
2016-04-23T05:06:42.272Z,12.95
2016-04-23T05:07:42.244Z,12.97
2016-04-23T05:08:42.261Z,12.95
2016-04-23T05:09:42.108Z,12.98
2016-04-23T05:10:42.314Z,12.98
2016-04-23T05:11:42.286Z,13
2016-04-23T05:12:42.256Z,13
2016-04-23T05:13:42.275Z,13.03
2016-04-23T05:14:42.262Z,13.11
2016-04-23T05:15:42.297Z,13
2016-04-23T05:16:42.267Z,13.03
2016-04-23T05:17:42.317Z,13.03
2016-04-23T05:18:42.289Z,13.04
2016-04-23T05:19:42.276Z,13.01
2016-04-23T05:20:42.263Z,12.98
2016-04-23T05:21:42.281Z,12.98
2016-04-23T05:22:42.268Z,13.05
2016-04-23T05:23:42.271Z,13.05
2016-04-23T05:24:42.273Z,13.08
2016-04-23T05:25:42.323Z,13.04
2016-04-23T05:26:42.279Z,13.11
2016-04-23T05:27:42.297Z,13.13
2016-04-23T05:28:42.300Z,13.25
2016-04-23T05:29:42.271Z,13.2
2016-04-23T05:30:42.149Z,13.3
2016-04-23T05:31:42.276Z,13.33
2016-04-23T05:32:42.295Z,13.37
2016-04-23T05:33:42.282Z,13.39
2016-04-23T05:34:42.285Z,13.42
2016-04-23T05:35:42.271Z,13.27
2016-04-23T05:36:42.290Z,13.25
2016-04-23T05:37:42.293Z,13.15
2016-04-23T05:38:42.311Z,13.18
2016-04-23T05:39:42.282Z,13.18
2016-04-23T05:40:42.332Z,13.13
2016-04-23T05:41:42.320Z,13.19
2016-04-23T05:42:42.306Z,13.2
2016-04-23T05:43:42.340Z,13.15
2016-04-23T05:44:42.296Z,13.19
2016-04-23T05:45:42.314Z,13.3
2016-04-23T05:46:42.301Z,13.31
2016-04-23T05:47:42.335Z,13.39
2016-04-23T05:48:42.292Z,13.44
2016-04-23T05:49:42.294Z,13.39
2016-04-23T05:50:42.359Z,13.41
2016-04-23T05:51:42.331Z,13.42
2016-04-23T05:52:42.302Z,13.38
2016-04-23T05:53:42.336Z,13.37
2016-04-23T05:54:42.322Z,13.41
2016-04-23T05:55:42.325Z,13.39
2016-04-23T05:56:42.313Z,13.28
2016-04-23T05:57:42.315Z,13.37
2016-04-23T05:58:42.318Z,13.41
2016-04-23T05:59:42.305Z,13.38
2016-04-23T06:00:42.355Z,13.37
2016-04-23T06:01:42.326Z,13.46
2016-04-23T06:02:42.313Z,13.49
2016-04-23T06:03:42.315Z,13.47
2016-04-23T06:04:42.319Z,13.49
2016-04-23T06:05:42.337Z,13.5
2016-04-23T06:06:42.355Z,13.46
2016-04-23T06:07:42.327Z,13.46
2016-04-23T06:08:42.345Z,13.44
2016-04-23T06:09:42.332Z,13.49
2016-04-23T06:10:42.334Z,13.46
2016-04-23T06:11:42.353Z,13.44
2016-04-23T06:12:42.340Z,13.47
2016-04-23T06:13:42.342Z,13.42
2016-04-23T06:14:42.345Z,13.3
2016-04-23T06:15:42.379Z,13.3
2016-04-23T06:16:42.351Z,13.3
2016-04-23T06:17:42.353Z,13.27
2016-04-23T06:18:42.325Z,13.22
2016-04-23T06:19:42.358Z,13.22
2016-04-23T06:20:42.409Z,13.35
2016-04-23T06:21:42.381Z,13.35
2016-04-23T06:22:42.352Z,13.3
2016-04-23T06:23:42.339Z,13.25
2016-04-23T06:24:42.341Z,13.22
2016-04-23T06:25:42.360Z,13.18
2016-04-23T06:26:42.362Z,13.13
2016-04-23T06:27:42.365Z,13.01
2016-04-23T06:28:42.368Z,13.08
2016-04-23T06:29:42.339Z,12.98
2016-04-23T06:30:42.357Z,13.01
2016-04-23T06:31:41.610Z,12.91
2016-04-23T06:32:42.347Z,12.87
2016-04-23T06:33:42.381Z,12.94
2016-04-23T06:34:42.368Z,12.87
2016-04-23T06:35:42.354Z,12.85
2016-04-23T06:36:42.374Z,12.79
2016-04-23T06:37:42.361Z,12.79
2016-04-23T06:38:42.363Z,12.9
2016-04-23T06:39:42.366Z,12.82
2016-04-23T06:40:42.384Z,12.82
2016-04-23T06:41:42.371Z,12.76
2016-04-23T06:42:42.373Z,12.65
2016-04-23T06:43:42.361Z,12.75
2016-04-23T06:44:42.379Z,12.73
2016-04-23T06:45:42.382Z,12.58
2016-04-23T06:46:42.369Z,12.61
2016-04-23T06:47:42.372Z,12.53
2016-04-23T06:48:42.375Z,12.46
2016-04-23T06:49:42.377Z,12.49
2016-04-23T06:50:42.380Z,12.5
2016-04-23T06:51:42.382Z,12.49
2016-04-23T06:52:42.386Z,12.5
2016-04-23T06:53:42.389Z,12.53
2016-04-23T06:54:42.391Z,12.49
2016-04-23T06:55:42.425Z,12.5
2016-04-23T06:56:42.396Z,12.57
2016-04-23T06:57:42.383Z,12.49
2016-04-23T06:58:42.417Z,12.49
2016-04-23T06:59:42.372Z,12.49
2016-04-23T07:00:42.485Z,12.49
2016-04-23T07:01:42.378Z,12.46
2016-04-23T07:02:42.397Z,12.46
2016-04-23T07:03:42.399Z,12.45
2016-04-23T07:04:42.402Z,12.47
2016-04-23T07:05:42.248Z,12.53
2016-04-23T07:06:42.407Z,12.64
2016-04-23T07:07:42.378Z,12.61
2016-04-23T07:08:42.397Z,12.68
2016-04-23T07:09:42.400Z,12.8
2016-04-23T07:10:42.465Z,12.8
2016-04-23T07:11:42.390Z,12.94
2016-04-23T07:12:42.376Z,13.03
2016-04-23T07:13:42.410Z,13.22
2016-04-23T07:14:42.413Z,13.33
2016-04-23T07:15:42.478Z,13.71
2016-04-23T07:16:42.403Z,14.11
2016-04-23T07:17:42.390Z,14.51
2016-04-23T07:18:42.393Z,14.94
2016-04-23T07:19:42.411Z,15.43
2016-04-23T07:20:42.476Z,15.76
2016-04-23T07:21:42.416Z,16.13
2016-04-23T07:22:42.419Z,16.56
2016-04-23T07:23:42.422Z,16.6
2016-04-23T07:24:42.425Z,16.5
2016-04-23T07:25:42.427Z,16.68
2016-04-23T07:26:42.445Z,16.58
2016-04-23T07:27:42.432Z,16.41
2016-04-23T07:28:42.435Z,16.2
2016-04-23T07:29:42.438Z,16.08
2016-04-23T07:30:42.456Z,15.97
2016-04-23T07:31:42.443Z,15.83
2016-04-23T07:32:42.430Z,15.58
2016-04-23T07:33:42.496Z,15.42
2016-04-23T07:34:42.498Z,15.19
2016-04-23T07:35:42.454Z,15.14
2016-04-23T07:36:42.457Z,15.1
2016-04-23T07:37:42.460Z,15.02
2016-04-23T07:38:42.477Z,14.91
2016-04-23T07:39:42.465Z,14.85
2016-04-23T07:40:42.529Z,14.62
2016-04-23T07:41:42.517Z,14.6
2016-04-23T07:42:41.814Z,14.43
2016-04-23T07:43:42.596Z,14.37
2016-04-23T07:44:42.643Z,14.18
2016-04-23T07:45:42.783Z,13.96
2016-04-23T07:46:42.714Z,13.9
2016-04-23T07:47:42.748Z,13.77
2016-04-23T07:48:42.814Z,13.67
2016-04-23T07:49:42.786Z,13.71
2016-04-23T07:50:42.837Z,13.56
2016-04-23T07:51:42.801Z,13.62
2016-04-23T07:52:42.809Z,13.67
2016-04-23T07:53:42.849Z,13.75
2016-04-23T07:54:42.841Z,13.77
2016-04-23T07:55:42.865Z,13.83
2016-04-23T07:56:42.887Z,14
2016-04-23T07:57:42.876Z,14.05
2016-04-23T07:58:42.865Z,14.1
2016-04-23T07:59:42.869Z,14.11
2016-04-23T08:00:42.999Z,14.22
2016-04-23T08:01:42.862Z,14.17
2016-04-23T08:02:42.880Z,14.14
2016-04-23T08:03:42.885Z,14.07
2016-04-23T08:04:42.888Z,14.03
2016-04-23T08:05:42.908Z,13.93
2016-04-23T08:06:42.879Z,13.87
2016-04-23T08:07:42.883Z,13.92
2016-04-23T08:08:42.901Z,13.97
2016-04-23T08:09:42.903Z,14.03
2016-04-23T08:10:42.939Z,14.07
2016-04-23T08:11:42.894Z,14.05
2016-04-23T08:12:42.897Z,14.07
2016-04-23T08:13:42.931Z,14.11
2016-04-23T08:14:42.903Z,13.93
2016-04-23T08:15:42.920Z,13.97
2016-04-23T08:16:42.939Z,14.05
2016-04-23T08:17:42.910Z,14.12
2016-04-23T08:18:42.789Z,14.17
2016-04-23T08:19:42.916Z,14.2
2016-04-23T08:20:42.980Z,14.18
2016-04-23T08:21:42.905Z,14.3
2016-04-23T08:22:42.924Z,14.35
2016-04-23T08:23:42.927Z,14.4
2016-04-23T08:24:42.944Z,14.36
2016-04-23T08:25:42.933Z,14.44
2016-04-23T08:26:42.919Z,14.43
2016-04-23T08:27:42.953Z,14.51
2016-04-23T08:28:43.096Z,14.58
2016-04-23T08:29:42.948Z,14.47
2016-04-23T08:30:42.950Z,14.53
2016-04-23T08:31:42.954Z,14.43
2016-04-23T08:32:42.956Z,14.35
2016-04-23T08:33:42.974Z,14.3
2016-04-23T08:34:42.961Z,14.33
2016-04-23T08:35:42.964Z,14.29
2016-04-23T08:36:43.076Z,14.26
2016-04-23T08:37:43.016Z,14.28
2016-04-23T08:38:42.973Z,14.22
2016-04-23T08:39:42.975Z,14.2
2016-04-23T08:40:42.992Z,14.15
2016-04-23T08:41:42.981Z,14
2016-04-23T08:42:42.998Z,13.9
2016-04-23T08:43:42.985Z,13.78
2016-04-23T08:44:42.848Z,13.74
2016-04-23T08:45:43.084Z,13.68
2016-04-23T08:46:42.993Z,13.46
2016-04-23T08:47:42.996Z,13.39
2016-04-23T08:48:42.984Z,13.27
2016-04-23T08:49:43.017Z,13.28
2016-04-23T08:50:43.066Z,13.3
2016-04-23T08:51:42.992Z,13.31
2016-04-23T08:52:43.010Z,13.35
2016-04-23T08:53:43.668Z,13.31
2016-04-23T08:54:43.015Z,13.3
2016-04-23T08:55:43.018Z,13.16
2016-04-23T08:56:43.005Z,13.25
2016-04-23T08:57:43.008Z,13.15
2016-04-23T08:58:43.057Z,13.08
2016-04-23T08:59:43.013Z,12.97
2016-04-23T09:00:43.015Z,12.91
2016-04-23T09:01:43.002Z,12.79
2016-04-23T09:02:43.021Z,12.7
2016-04-23T09:03:43.023Z,12.7
2016-04-23T09:04:43.010Z,12.62
2016-04-23T09:05:43.013Z,12.49
2016-04-23T09:06:43.032Z,12.49
2016-04-23T09:07:43.034Z,12.49
2016-04-23T09:08:43.678Z,12.47
2016-04-23T09:09:43.008Z,12.57
2016-04-23T09:10:43.026Z,12.6
2016-04-23T09:11:43.014Z,12.5
2016-04-23T09:12:43.017Z,12.55
2016-04-23T09:13:43.019Z,12.53
2016-04-23T09:14:43.037Z,12.43
2016-04-23T09:15:43.025Z,12.4
2016-04-23T09:16:43.027Z,12.36
2016-04-23T09:17:43.030Z,12.29
2016-04-23T09:18:43.033Z,12.35
2016-04-23T09:19:43.036Z,12.31
2016-04-23T09:20:43.038Z,12.31
2016-04-23T09:21:43.088Z,12.32
2016-04-23T09:22:43.105Z,12.2
2016-04-23T09:23:43.030Z,12.2
2016-04-23T09:24:42.846Z,12.28
2016-04-23T09:25:43.099Z,12.24
2016-04-23T09:26:43.039Z,12.24
2016-04-23T09:27:42.885Z,12.22
2016-04-23T09:28:43.028Z,12.21
2016-04-23T09:29:43.219Z,12.18
2016-04-23T09:30:43.080Z,12.13
2016-04-23T09:31:43.021Z,12.03
2016-04-23T09:32:43.055Z,12.02
2016-04-23T09:33:42.963Z,12.03
2016-04-23T09:34:46.091Z,12.09
2016-04-23T09:35:43.048Z,12.03
2016-04-23T09:36:43.034Z,11.99
2016-04-23T09:37:43.037Z,11.88
2016-04-23T09:38:43.055Z,11.84
2016-04-23T09:39:43.058Z,11.73
2016-04-23T09:40:43.092Z,11.73
2016-04-23T09:41:43.079Z,11.72
2016-04-23T09:42:43.144Z,11.54
2016-04-23T09:43:43.069Z,11.51
2016-04-23T09:44:43.025Z,11.54
2016-04-23T09:45:43.042Z,11.6
2016-04-23T09:46:43.030Z,11.55
2016-04-23T09:47:43.064Z,11.7
2016-04-23T09:48:42.879Z,11.81
2016-04-23T09:49:43.054Z,11.78
2016-04-23T09:50:43.041Z,11.83
2016-04-23T09:51:43.044Z,11.91
2016-04-23T09:52:43.014Z,11.94
2016-04-23T09:53:43.033Z,11.83
2016-04-23T09:54:43.036Z,11.77
2016-04-23T09:55:43.022Z,11.77
2016-04-23T09:56:43.025Z,11.7
2016-04-23T09:57:43.028Z,11.69
2016-04-23T09:58:43.046Z,11.73
2016-04-23T09:59:42.299Z,11.63
2016-04-23T10:00:43.052Z,11.6
2016-04-23T10:01:43.039Z,11.44
2016-04-23T10:02:43.027Z,11.33
2016-04-23T10:03:43.029Z,11.23
2016-04-23T10:04:43.062Z,11.15
2016-04-23T10:05:43.049Z,10.94
2016-04-23T10:06:43.709Z,10.96
2016-04-23T10:07:43.055Z,10.96
2016-04-23T10:08:43.354Z,10.86
2016-04-23T10:09:43.029Z,10.82
2016-04-23T10:10:43.079Z,10.76
2016-04-23T10:11:43.331Z,10.61
2016-04-23T10:12:43.037Z,10.64
2016-04-23T10:13:43.040Z,10.6
2016-04-23T10:14:43.027Z,10.57
2016-04-23T10:15:44.014Z,10.59
2016-04-23T10:16:43.048Z,10.51
2016-04-23T10:17:42.878Z,10.41
2016-04-23T10:18:43.053Z,10.46
2016-04-23T10:19:43.041Z,10.37
2016-04-23T10:20:43.075Z,10.44
2016-04-23T10:21:43.030Z,10.37
2016-04-23T10:22:43.048Z,10.33
2016-04-23T10:23:43.039Z,10.38
2016-04-23T10:24:43.011Z,10.41
2016-04-23T10:25:43.060Z,10.4
2016-04-23T10:26:43.031Z,10.41
2016-04-23T10:27:43.033Z,10.53
2016-04-23T10:28:43.021Z,10.49
2016-04-23T10:29:43.024Z,10.37
2016-04-23T10:30:43.010Z,10.38
2016-04-23T10:31:43.029Z,10.31
2016-04-23T10:32:43.032Z,10.37
2016-04-23T10:33:43.019Z,10.33
2016-04-23T10:34:44.396Z,10.33
2016-04-23T10:35:43.040Z,10.35
2016-04-23T10:36:43.010Z,10.41
2016-04-23T10:37:42.873Z,10.34
2016-04-23T10:38:43.016Z,10.31
2016-04-23T10:39:43.018Z,10.35
2016-04-23T10:40:43.100Z,10.41
2016-04-23T10:41:43.009Z,10.33
2016-04-23T10:42:43.027Z,10.31
2016-04-23T10:43:42.998Z,10.3
2016-04-23T10:44:43.001Z,10.13
2016-04-23T10:45:43.129Z,10.19
2016-04-23T10:46:43.070Z,10.09
2016-04-23T10:47:43.040Z,10.16
2016-04-23T10:48:43.090Z,10.19
2016-04-23T10:49:42.906Z,10.2
2016-04-23T10:50:43.206Z,10.1
2016-04-23T10:51:43.645Z,10.15
2016-04-23T10:52:43.101Z,10.19
2016-04-23T10:53:43.197Z,10.16
2016-04-23T10:54:43.201Z,10.19
2016-04-23T10:55:43.328Z,10.15
2016-04-23T10:56:43.049Z,10.2
2016-04-23T10:57:43.552Z,10.16
2016-04-23T10:58:43.336Z,10.33
2016-04-23T10:59:43.323Z,10.2
2016-04-23T11:00:43.200Z,10.28
2016-04-23T11:01:44.172Z,10.26
2016-04-23T11:02:44.002Z,10.16
2016-04-23T11:03:44.224Z,10.16
2016-04-23T11:04:45.196Z,10.2
2016-04-23T11:05:43.933Z,10.16
2016-04-23T11:06:44.077Z,10.16
2016-04-23T11:07:44.157Z,10.23
2016-04-23T11:08:44.144Z,10.09
2016-04-23T11:09:44.099Z,10.1
2016-04-23T11:10:44.243Z,10.12
2016-04-23T11:11:44.027Z,10.09
2016-04-23T11:12:44.093Z,10.17
2016-04-23T11:13:44.393Z,10.1
2016-04-23T11:14:43.987Z,9.98
2016-04-23T11:15:43.990Z,9.92
2016-04-23T11:16:44.056Z,9.98
2016-04-23T11:17:43.950Z,10.01
2016-04-23T11:18:44.124Z,9.86
2016-04-23T11:19:43.393Z,9.94
2016-04-23T11:20:43.629Z,9.94
2016-04-23T11:21:43.382Z,9.89
2016-04-23T11:22:43.525Z,9.98
2016-04-23T11:23:43.700Z,10.01
2016-04-23T11:24:44.000Z,9.98
2016-04-23T11:25:44.267Z,9.89
2016-04-23T11:26:44.177Z,9.79
2016-04-23T11:27:43.977Z,9.77
2016-04-23T11:28:44.167Z,9.74
2016-04-23T11:29:48.403Z,9.72
2016-04-23T11:30:43.938Z,9.74
2016-04-23T11:31:44.034Z,9.76
2016-04-23T11:32:43.849Z,9.74
2016-04-23T11:33:43.774Z,9.8
2016-04-23T11:34:44.308Z,9.82
2016-04-23T11:35:43.967Z,9.72
2016-04-23T11:36:42.985Z,9.61
2016-04-23T11:37:43.425Z,9.47
2016-04-23T11:38:43.007Z,9.5
2016-04-23T11:39:43.024Z,9.44
2016-04-23T11:40:43.043Z,9.41
2016-04-23T11:41:43.060Z,9.29
2016-04-23T11:42:42.985Z,9.28
2016-04-23T11:43:43.004Z,9.13
2016-04-23T11:44:43.132Z,9.22
2016-04-23T11:45:43.026Z,9.13
2016-04-23T11:46:43.106Z,9.1
2016-04-23T11:47:42.998Z,9.14
2016-04-23T11:48:43.034Z,9.19
2016-04-23T11:49:43.707Z,9.21
2016-04-23T11:50:43.117Z,9.14
2016-04-23T11:51:43.057Z,9.29
2016-04-23T11:52:42.966Z,9.32
2016-04-23T11:53:43.078Z,9.32
2016-04-23T11:54:43.095Z,9.37
2016-04-23T11:55:43.036Z,9.32
2016-04-23T11:56:43.070Z,9.28
2016-04-23T11:57:42.964Z,9.26
2016-04-23T11:58:42.950Z,9.28
2016-04-23T11:59:42.953Z,9.32
2016-04-23T12:00:43.050Z,9.34
2016-04-23T12:01:42.990Z,9.32
2016-04-23T12:02:42.946Z,9.32
2016-04-23T12:03:43.074Z,9.23
2016-04-23T12:04:42.904Z,9.19
2016-04-23T12:05:42.938Z,9.19
2016-04-23T12:06:42.957Z,9.19
2016-04-23T12:07:43.038Z,9.21
2016-04-23T12:08:42.977Z,9.13
2016-04-23T12:09:43.027Z,9.14
2016-04-23T12:10:44.702Z,9.08
2016-04-23T12:11:44.657Z,9.16
2016-04-23T12:12:44.160Z,9.06
2016-04-23T12:13:44.178Z,9.1
2016-04-23T12:14:43.931Z,9.14
2016-04-23T12:15:44.168Z,9.04
2016-04-23T12:16:43.655Z,9.13
2016-04-23T12:17:44.704Z,9.08
2016-04-23T12:18:44.379Z,9.06
2016-04-23T12:19:43.069Z,9.04
2016-04-23T12:20:44.682Z,9.02
2016-04-23T12:21:43.434Z,9.02
2016-04-23T12:22:43.968Z,9.04
2016-04-23T12:23:43.298Z,9.06
2016-04-23T12:24:43.380Z,8.99
2016-04-23T12:25:43.039Z,8.97
2016-04-23T12:26:42.995Z,9.03
2016-04-23T12:27:42.951Z,8.89
2016-04-23T12:28:42.969Z,8.82
2016-04-23T12:29:42.955Z,8.74
2016-04-23T12:30:42.911Z,8.74
2016-04-23T12:31:42.961Z,8.66
2016-04-23T12:32:42.886Z,8.58
2016-04-23T12:33:42.951Z,8.6
2016-04-23T12:34:43.141Z,8.63
2016-04-23T12:35:43.628Z,8.55
2016-04-23T12:36:42.881Z,8.67
2016-04-23T12:37:42.930Z,8.69
2016-04-23T12:38:42.871Z,8.69
2016-04-23T12:39:42.935Z,8.76
2016-04-23T12:40:42.860Z,8.78
2016-04-23T12:41:42.941Z,8.71
2016-04-23T12:42:42.975Z,8.7
2016-04-23T12:43:42.977Z,8.73
2016-04-23T12:44:42.996Z,8.73
2016-04-23T12:45:42.874Z,8.67
2016-04-23T12:46:43.080Z,8.69
2016-04-23T12:47:42.863Z,8.67
2016-04-23T12:48:42.976Z,8.79
2016-04-23T12:49:42.572Z,8.78
2016-04-23T12:50:42.856Z,8.76
2016-04-23T12:51:43.062Z,8.76
2016-04-23T12:52:42.877Z,8.66
2016-04-23T12:53:42.864Z,8.64
2016-04-23T12:54:42.836Z,8.67
2016-04-23T12:55:42.870Z,8.7
2016-04-23T12:56:42.919Z,8.71
2016-04-23T12:57:42.937Z,8.67
2016-04-23T12:58:42.892Z,8.64
2016-04-23T12:59:42.942Z,8.73
2016-04-23T13:00:42.977Z,8.74